createdAt,value
2023-05-15T00:01:29.144Z,11.40
2023-05-15T00:06:32.401Z,11.50
2023-05-15T00:11:36.112Z,11.50
2023-05-15T00:16:41.308Z,11.50
2023-05-15T00:21:45.126Z,11.40
2023-05-15T00:26:48.397Z,11.30
2023-05-15T00:31:53.476Z,11.20
2023-05-15T00:36:57.170Z,11.20
2023-05-15T00:42:02.368Z,11.00
2023-05-15T00:47:08.303Z,10.90
2023-05-15T00:52:12.339Z,10.90
2023-05-15T00:57:17.048Z,10.90
2023-05-15T01:02:21.744Z,11.00
2023-05-15T01:07:25.164Z,11.10
2023-05-15T01:12:31.004Z,11.30
2023-05-15T01:17:35.725Z,11.40
2023-05-15T01:23:07.227Z,11.40
2023-05-15T01:28:15.451Z,11.40
2023-05-15T01:33:24.090Z,11.30
2023-05-15T01:38:35.911Z,11.30
2023-05-15T01:43:43.699Z,11.20
2023-05-15T01:48:49.353Z,11.20
2023-05-15T01:53:53.150Z,11.20
2023-05-15T01:59:00.215Z,11.20
2023-05-15T02:04:05.906Z,11.10
2023-05-15T02:09:10.600Z,11.10
2023-05-15T02:14:17.368Z,11.10
2023-05-15T02:19:20.723Z,11.00
2023-05-15T02:24:24.425Z,11.00
2023-05-15T02:29:36.627Z,11.00
2023-05-15T02:34:48.761Z,11.00
2023-05-15T02:39:54.653Z,11.00
2023-05-15T02:45:00.141Z,11.00
2023-05-15T02:50:04.185Z,11.00
2023-05-15T02:55:10.665Z,11.00
2023-05-15T03:00:17.674Z,11.00
2023-05-15T03:05:21.384Z,11.20
2023-05-15T03:10:24.767Z,11.20
2023-05-15T03:15:29.375Z,11.30
2023-05-15T03:20:32.644Z,11.40
2023-05-15T03:25:35.867Z,11.40
2023-05-15T03:30:40.453Z,11.40
2023-05-15T03:35:44.728Z,11.40
2023-05-15T03:40:50.231Z,11.50
2023-05-15T03:45:55.766Z,11.60
2023-05-15T03:51:00.433Z,11.60
2023-05-15T03:56:07.465Z,11.70
2023-05-15T04:01:12.613Z,11.70
2023-05-15T04:06:16.286Z,11.80
2023-05-15T04:11:19.522Z,11.90
2023-05-15T04:16:24.108Z,12.00
2023-05-15T04:21:27.337Z,12.10
2023-05-15T04:26:34.395Z,12.20
2023-05-15T04:31:39.620Z,12.30
2023-05-15T04:36:43.313Z,12.40
2023-05-15T04:41:46.699Z,12.60
2023-05-15T04:46:51.292Z,12.60
2023-05-15T04:51:54.556Z,12.80
2023-05-15T04:56:57.872Z,12.90
2023-05-15T05:02:03.320Z,13.10
2023-05-15T05:07:06.983Z,13.30
2023-05-15T05:12:11.833Z,13.50
2023-05-15T05:17:16.964Z,13.70
2023-05-15T05:22:20.630Z,13.90
2023-05-15T05:27:23.868Z,14.10
2023-05-15T05:32:28.614Z,14.30
2023-05-15T05:37:31.874Z,14.40
2023-05-15T05:42:35.129Z,14.60
2023-05-15T05:47:39.738Z,14.90
2023-05-15T05:52:43.151Z,15.00
2023-05-15T05:57:46.388Z,15.00
2023-05-15T06:02:53.086Z,15.10
2023-05-15T06:07:57.024Z,15.40
2023-05-15T06:13:00.353Z,15.50
2023-05-15T06:18:07.169Z,15.50
2023-05-15T06:23:10.251Z,15.70
2023-05-15T06:28:13.784Z,15.50
2023-05-15T06:33:18.528Z,15.40
2023-05-15T06:38:21.771Z,15.30
2023-05-15T06:43:25.020Z,15.20
2023-05-15T06:48:29.646Z,15.00
2023-05-15T06:53:33.252Z,14.90
2023-05-15T06:58:36.460Z,14.90
2023-05-15T07:03:42.958Z,14.90
2023-05-15T07:08:46.657Z,14.90
2023-05-15T07:13:50.799Z,14.90
2023-05-15T07:18:56.399Z,15.10
2023-05-15T07:23:59.691Z,15.20
2023-05-15T07:29:04.174Z,15.40
2023-05-15T07:34:09.082Z,15.60
2023-05-15T07:39:12.499Z,15.70
2023-05-15T07:44:15.768Z,16.00
2023-05-15T07:49:20.310Z,16.30
2023-05-15T07:54:23.454Z,16.60
2023-05-15T07:59:27.269Z,16.80
2023-05-15T08:04:32.379Z,17.20
2023-05-15T08:09:35.632Z,17.50
2023-05-15T08:14:38.946Z,17.80
2023-05-15T08:19:43.768Z,18.00
2023-05-15T08:24:47.063Z,18.20
2023-05-15T08:29:50.339Z,18.60
2023-05-15T08:34:54.935Z,18.90
2023-05-15T08:39:58.112Z,19.10
2023-05-15T08:45:02.166Z,19.10
2023-05-15T08:50:10.972Z,19.60
2023-05-15T08:55:15.397Z,19.60
2023-05-15T09:00:21.065Z,19.60
2023-05-15T09:05:25.863Z,19.70
2023-05-15T09:10:31.022Z,19.80
2023-05-15T09:15:34.527Z,19.90
2023-05-15T09:20:39.886Z,19.80
2023-05-15T09:25:45.070Z,20.10
2023-05-15T09:30:48.723Z,20.00
2023-05-15T09:35:53.712Z,20.10
2023-05-15T09:41:04.322Z,20.40
2023-05-15T09:46:09.614Z,20.90
2023-05-15T09:51:19.055Z,20.90
2023-05-15T09:56:23.442Z,20.40
2023-05-15T10:01:28.067Z,20.70
2023-05-15T10:06:38.606Z,20.50
2023-05-15T10:11:44.822Z,20.50
2023-05-15T10:16:48.581Z,20.50
2023-05-15T10:21:57.543Z,20.40
2023-05-15T10:27:02.132Z,20.40
2023-05-15T10:32:06.531Z,20.60
2023-05-15T10:37:12.493Z,21.00
2023-05-15T10:42:17.217Z,20.90
2023-05-15T10:47:21.017Z,21.00
2023-05-15T10:52:26.133Z,21.20
2023-05-15T10:57:30.468Z,21.50
2023-05-15T11:02:40.198Z,21.30
2023-05-15T11:07:45.386Z,21.50
2023-05-15T11:12:59.522Z,21.60
2023-05-15T11:18:08.228Z,21.50
2023-05-15T11:23:13.328Z,21.80
2023-05-15T11:28:23.693Z,22.10
2023-05-15T11:33:31.745Z,22.10
2023-05-15T11:38:41.374Z,22.60
2023-05-15T11:43:45.068Z,22.30
2023-05-15T11:48:49.673Z,22.60
2023-05-15T11:53:58.143Z,22.50
2023-05-15T11:59:02.789Z,22.00
2023-05-15T12:04:14.323Z,21.40
2023-05-15T12:09:23.028Z,20.80
2023-05-15T12:14:30.191Z,20.50
2023-05-15T12:19:35.340Z,20.40
2023-05-15T12:24:44.759Z,20.50
2023-05-15T12:29:48.600Z,20.70
2023-05-15T12:34:52.047Z,21.10
2023-05-15T12:39:58.708Z,21.50
2023-05-15T12:45:02.420Z,21.80
2023-05-15T12:50:14.698Z,22.30
2023-05-15T12:55:23.778Z,22.50
2023-05-15T13:00:27.897Z,22.40
2023-05-15T13:05:34.701Z,22.00
2023-05-15T13:10:39.961Z,21.80
2023-05-15T13:15:45.063Z,21.70
2023-05-15T13:20:50.613Z,21.80
2023-05-15T13:25:55.787Z,21.80
2023-05-15T13:30:59.558Z,21.60
2023-05-15T13:36:03.271Z,21.70
2023-05-15T13:41:08.166Z,21.10
2023-05-15T13:46:11.664Z,20.20
2023-05-15T13:51:15.284Z,19.20
2023-05-15T13:56:20.245Z,18.50
2023-05-15T14:01:23.870Z,17.70
2023-05-15T14:06:28.000Z,16.80
2023-05-15T14:11:34.998Z,15.70
2023-05-15T14:16:38.654Z,15.30
2023-05-15T14:21:42.340Z,15.50
2023-05-15T14:26:47.473Z,16.00
2023-05-15T14:31:51.097Z,16.60
2023-05-15T14:36:54.714Z,17.20
2023-05-15T14:41:59.532Z,17.70
2023-05-15T14:47:10.359Z,18.20
2023-05-15T14:52:13.899Z,18.50
2023-05-15T14:57:20.760Z,18.60
2023-05-15T15:02:24.297Z,18.70
2023-05-15T15:07:30.907Z,18.80
2023-05-15T15:12:35.904Z,18.90
2023-05-15T15:17:39.488Z,19.20
2023-05-15T15:22:43.073Z,19.60
2023-05-15T15:27:48.891Z,19.50
2023-05-15T15:32:52.755Z,19.30
2023-05-15T15:37:56.799Z,19.40
2023-05-15T15:43:02.080Z,19.50
2023-05-15T15:48:06.065Z,19.80
2023-05-15T15:53:09.697Z,20.40
2023-05-15T15:58:14.814Z,20.60
2023-05-15T16:03:18.382Z,20.30
2023-05-15T16:08:22.247Z,20.10
2023-05-15T16:13:27.324Z,19.90
2023-05-15T16:18:30.945Z,19.80
2023-05-15T16:23:35.689Z,19.70
2023-05-15T16:28:40.832Z,19.80
2023-05-15T16:33:43.930Z,19.70
2023-05-15T16:38:47.416Z,19.70
2023-05-15T16:43:52.366Z,20.50
2023-05-15T16:48:55.802Z,21.10
2023-05-15T16:54:00.057Z,21.50
2023-05-15T16:59:05.124Z,21.50
2023-05-15T17:04:08.982Z,21.00
2023-05-15T17:09:12.625Z,21.00
2023-05-15T17:14:17.727Z,21.10
2023-05-15T17:19:21.424Z,20.70
2023-05-15T17:24:25.028Z,20.50
2023-05-15T17:29:30.074Z,20.40
2023-05-15T17:34:33.583Z,20.30
2023-05-15T17:39:37.365Z,20.20
2023-05-15T17:44:42.402Z,20.90
2023-05-15T17:49:45.839Z,21.70
2023-05-15T17:54:49.465Z,21.80
2023-05-15T17:59:54.449Z,21.20
2023-05-15T18:04:57.837Z,20.70
2023-05-15T18:10:01.484Z,20.70
2023-05-15T18:15:07.215Z,20.30
2023-05-15T18:20:12.024Z,19.90
2023-05-15T18:25:15.713Z,19.60
2023-05-15T18:30:20.801Z,19.30
2023-05-15T18:35:24.893Z,19.10
2023-05-15T18:40:28.876Z,18.90
2023-05-15T18:45:33.859Z,18.80
2023-05-15T18:50:37.529Z,18.70
2023-05-15T18:55:41.132Z,18.50
2023-05-15T19:00:46.255Z,18.40
2023-05-15T19:05:50.050Z,18.30
2023-05-15T19:10:53.835Z,18.10
2023-05-15T19:15:58.760Z,17.90
2023-05-15T19:21:02.276Z,17.80
2023-05-15T19:26:05.977Z,17.60
2023-05-15T19:31:20.434Z,17.40
2023-05-15T19:36:34.275Z,17.20
2023-05-15T19:41:38.023Z,17.00
2023-05-15T19:46:43.130Z,16.70
2023-05-15T19:51:46.831Z,16.50
2023-05-15T19:56:50.119Z,16.40
2023-05-15T20:01:55.096Z,16.30
2023-05-15T20:06:58.713Z,16.20
2023-05-15T20:12:03.107Z,16.10
2023-05-15T20:17:08.152Z,16.10
2023-05-15T20:22:11.733Z,16.00
2023-05-15T20:27:15.337Z,16.00
2023-05-15T20:32:20.424Z,16.00
2023-05-15T20:37:27.973Z,15.90
2023-05-15T20:42:32.434Z,15.90
2023-05-15T20:47:37.442Z,15.80
2023-05-15T20:52:41.178Z,15.60
2023-05-15T20:57:45.182Z,15.50
2023-05-15T21:02:50.145Z,15.30
2023-05-15T21:07:53.720Z,15.10
2023-05-15T21:12:59.384Z,15.00
2023-05-15T21:18:04.888Z,14.90
2023-05-15T21:23:08.792Z,14.80
2023-05-15T21:28:12.307Z,14.60
2023-05-15T21:33:17.245Z,14.50
2023-05-15T21:38:21.026Z,14.50
2023-05-15T21:43:24.641Z,14.40
2023-05-15T21:48:29.258Z,14.30
2023-05-15T21:53:32.452Z,14.20
2023-05-15T21:58:35.667Z,14.10
2023-05-15T22:03:40.343Z,14.00
2023-05-15T22:08:43.813Z,13.90
2023-05-15T22:13:47.048Z,13.80
2023-05-15T22:18:54.032Z,13.80
2023-05-15T22:23:57.313Z,13.70
2023-05-15T22:29:00.706Z,13.60
2023-05-15T22:34:05.406Z,13.50
2023-05-15T22:39:08.935Z,13.40
2023-05-15T22:44:12.136Z,13.40
2023-05-15T22:49:19.295Z,13.30
2023-05-15T22:54:23.297Z,13.20
2023-05-15T22:59:27.133Z,13.10
2023-05-15T23:04:31.912Z,13.00
2023-05-15T23:09:35.671Z,12.90
2023-05-15T23:14:38.940Z,12.90
2023-05-15T23:19:43.934Z,12.80
2023-05-15T23:24:47.379Z,12.80
2023-05-15T23:29:50.981Z,12.80
2023-05-15T23:34:57.191Z,12.70
2023-05-15T23:40:00.543Z,12.60
2023-05-15T23:45:03.782Z,12.60
2023-05-15T23:50:09.758Z,12.50
2023-05-15T23:55:13.643Z,12.50
